Thirsk, United Kingdom
Current Conditions -  °F | °C
As of 11:50 PM on Thursday 27 Nov 2014 (Local Time) from EGXD Reporting Station
Haze Haze  
Wind Chill: 45°   Ceiling: 200
Heat Index: 45°   Visibility: 1.3mi
Dew Point: 43°   Wind: 1mph
Humidity: 93%   Direction: 90°E
Pressure: 29.65"   Gusts: NA
Location:  54.23°N, 1.34°W
Report Text: EGXD 272350Z 09001KT 2200 BR OVC002 07/06 Q1004 AMB
Loading
Personal Weather Stations






























Interactive Weather Map New forecast layout! Learn more

10-Day Weather Forecast

Advertisements
Track Severe Weather on mobile